createdAt,value
2018-12-10T00:02:08.949Z,3.50
2018-12-10T00:04:39.281Z,3.90
2018-12-10T00:07:07.632Z,4.03
2018-12-10T00:09:44.545Z,2.60
2018-12-10T00:12:13.011Z,6.03
2018-12-10T00:14:43.819Z,3.70
2018-12-10T00:17:15.163Z,6.67
2018-12-10T00:19:59.038Z,4.17
2018-12-10T00:22:30.673Z,5.17
2018-12-10T00:24:59.053Z,4.37
2018-12-10T00:27:27.580Z,5.67
2018-12-10T00:29:56.844Z,5.07
2018-12-10T00:32:26.220Z,6.67
2018-12-10T00:34:57.443Z,4.27
2018-12-10T00:37:26.673Z,4.90
2018-12-10T00:39:55.461Z,5.47
2018-12-10T00:42:25.348Z,6.50
2018-12-10T00:44:54.788Z,7.33
2018-12-10T00:47:24.148Z,5.57
2018-12-10T00:49:53.339Z,8.13
2018-12-10T00:52:25.429Z,7.77
2018-12-10T00:54:55.008Z,6.43
2018-12-10T00:57:26.542Z,6.07
2018-12-10T00:59:55.657Z,8.10
2018-12-10T01:02:24.025Z,7.13
2018-12-10T01:04:53.029Z,7.07
2018-12-10T01:07:22.043Z,7.67
2018-12-10T01:09:50.343Z,8.90
2018-12-10T01:12:18.801Z,5.30
2018-12-10T01:14:48.357Z,7.03
2018-12-10T01:17:18.733Z,7.53
2018-12-10T01:19:47.754Z,5.93
2018-12-10T01:22:16.071Z,6.37
2018-12-10T01:24:44.496Z,7.37
2018-12-10T01:27:13.973Z,5.43
2018-12-10T01:29:43.353Z,7.70
2018-12-10T01:32:11.753Z,6.67
2018-12-10T01:34:43.904Z,9.50
2018-12-10T01:37:13.388Z,5.13
2018-12-10T01:39:45.285Z,9.30
2018-12-10T01:42:14.619Z,8.47
2018-12-10T01:44:47.557Z,7.23
2018-12-10T01:47:15.976Z,5.53
2018-12-10T01:49:46.301Z,12.90
2018-12-10T01:52:18.629Z,7.47
2018-12-10T01:54:49.032Z,5.90
2018-12-10T01:57:17.442Z,8.07
2018-12-10T01:59:48.114Z,11.07
2018-12-10T02:02:19.893Z,8.83
2018-12-10T02:04:48.323Z,4.97
2018-12-10T02:07:19.095Z,5.43
2018-12-10T02:09:47.414Z,5.37
2018-12-10T02:12:15.820Z,9.60
2018-12-10T02:14:47.236Z,5.77
2018-12-10T02:17:15.679Z,8.27
2018-12-10T02:19:45.027Z,5.60
2018-12-10T02:22:24.517Z,6.23
2018-12-10T02:25:00.420Z,9.50
2018-12-10T02:27:30.752Z,6.67
2018-12-10T02:30:00.137Z,5.43
2018-12-10T02:32:28.556Z,7.23
2018-12-10T02:34:57.926Z,7.33
2018-12-10T02:37:26.341Z,9.27
2018-12-10T02:39:54.684Z,6.07
2018-12-10T02:42:25.050Z,7.47
2018-12-10T02:44:59.610Z,6.40
2018-12-10T02:50:19.580Z,8.50
2018-12-10T02:58:29.443Z,6.20
2018-12-10T03:03:58.583Z,11.63
2018-12-10T03:06:33.588Z,9.17
2018-12-10T03:09:05.780Z,7.73
2018-12-10T03:11:34.097Z,8.90
2018-12-10T03:16:54.238Z,6.87
2018-12-10T03:19:24.754Z,5.40
2018-12-10T03:24:53.124Z,6.93
2018-12-10T03:27:28.112Z,6.17
2018-12-10T03:29:56.508Z,6.20
2018-12-10T03:32:24.903Z,5.50
2018-12-10T03:35:01.882Z,5.63
2018-12-10T03:37:33.804Z,7.13
2018-12-10T03:40:03.343Z,4.73
2018-12-10T03:42:37.154Z,8.70
2018-12-10T03:45:06.751Z,3.17
2018-12-10T03:47:44.972Z,4.13
2018-12-10T03:50:35.099Z,4.87
2018-12-10T03:53:15.655Z,5.37
2018-12-10T03:55:59.412Z,3.73
2018-12-10T03:58:37.557Z,4.30
2018-12-10T04:01:05.949Z,5.70
2018-12-10T04:03:34.320Z,3.80
2018-12-10T04:06:02.831Z,4.13
2018-12-10T04:08:31.321Z,5.03
2018-12-10T04:10:59.761Z,3.13
2018-12-10T04:13:28.104Z,3.23
2018-12-10T04:15:56.908Z,3.27
2018-12-10T04:18:25.798Z,3.93
2018-12-10T04:20:55.276Z,2.90
2018-12-10T04:23:23.807Z,3.10
2018-12-10T04:25:52.227Z,2.60
2018-12-10T04:28:20.587Z,5.90
2018-12-10T04:30:49.080Z,2.30
2018-12-10T04:33:17.554Z,3.10
2018-12-10T04:35:45.952Z,4.60
2018-12-10T04:38:14.493Z,2.40
2018-12-10T04:40:43.537Z,1.97
2018-12-10T04:43:11.926Z,2.77
2018-12-10T04:45:40.325Z,3.37
2018-12-10T04:48:08.713Z,3.87
2018-12-10T04:50:38.083Z,4.00
2018-12-10T04:53:06.454Z,8.43
2018-12-10T04:55:34.910Z,4.13
2018-12-10T04:58:03.302Z,4.53
2018-12-10T05:00:31.662Z,3.77
2018-12-10T05:03:06.058Z,3.97
2018-12-10T05:05:34.502Z,4.43
2018-12-10T05:08:05.453Z,4.07
2018-12-10T05:10:34.094Z,5.07
2018-12-10T05:13:02.554Z,4.90
2018-12-10T05:15:32.000Z,3.93
2018-12-10T05:18:00.359Z,4.60
2018-12-10T05:20:28.746Z,5.13
2018-12-10T05:22:57.152Z,6.50
2018-12-10T05:25:25.581Z,3.93
2018-12-10T05:27:54.009Z,7.67
2018-12-10T05:30:22.360Z,4.97
2018-12-10T05:32:50.739Z,6.80
2018-12-10T05:35:19.104Z,6.67
2018-12-10T05:37:47.532Z,4.53
2018-12-10T05:40:15.869Z,7.10
2018-12-10T05:42:44.261Z,6.80
2018-12-10T05:45:12.756Z,5.70
2018-12-10T05:47:41.166Z,9.07
2018-12-10T05:50:09.624Z,3.63
2018-12-10T05:52:37.995Z,5.87
2018-12-10T05:55:06.487Z,7.80
2018-12-10T05:57:34.877Z,4.63
2018-12-10T06:00:03.230Z,4.90
2018-12-10T06:02:31.828Z,9.50
2018-12-10T06:05:01.298Z,6.10
2018-12-10T06:07:29.771Z,3.83
2018-12-10T06:09:58.157Z,6.50
2018-12-10T06:12:26.478Z,5.40
2018-12-10T06:14:54.828Z,8.07
2018-12-10T06:17:23.198Z,5.00
2018-12-10T06:19:51.614Z,6.17
2018-12-10T06:22:20.021Z,5.33
2018-12-10T06:24:48.591Z,9.50
2018-12-10T06:27:16.942Z,9.10
2018-12-10T06:29:45.404Z,3.27
2018-12-10T06:32:13.796Z,6.27
2018-12-10T06:34:43.233Z,6.23
2018-12-10T06:37:11.583Z,6.17
2018-12-10T06:39:39.969Z,8.07
2018-12-10T06:42:08.422Z,5.07
2018-12-10T06:44:37.073Z,4.40
2018-12-10T06:47:06.113Z,6.80
2018-12-10T06:49:34.510Z,8.03
2018-12-10T06:52:03.990Z,7.43
2018-12-10T06:54:32.385Z,7.13
2018-12-10T06:57:02.828Z,8.87
2018-12-10T06:59:48.745Z,6.77
2018-12-10T07:02:18.213Z,10.10
2018-12-10T07:04:55.073Z,6.57
2018-12-10T07:07:27.369Z,4.70
2018-12-10T07:10:16.652Z,7.97
2018-12-10T07:12:44.948Z,8.37
2018-12-10T07:15:13.393Z,5.73
2018-12-10T07:17:51.489Z,6.90
2018-12-10T07:20:28.606Z,8.23
2018-12-10T07:28:45.102Z,7.47
2018-12-10T07:31:16.966Z,7.30
2018-12-10T07:33:45.334Z,7.53
2018-12-10T07:36:16.216Z,5.60
2018-12-10T07:38:54.557Z,6.73
2018-12-10T07:41:24.001Z,6.07
2018-12-10T07:43:52.371Z,5.33
2018-12-10T07:46:20.810Z,7.77
2018-12-10T07:48:49.274Z,7.13
2018-12-10T07:51:17.612Z,8.23
2018-12-10T07:53:45.993Z,5.07
2018-12-10T07:56:14.411Z,7.03
2018-12-10T07:58:42.779Z,7.57
2018-12-10T08:01:12.222Z,5.37
2018-12-10T08:03:40.745Z,7.80
2018-12-10T08:06:10.135Z,6.13
2018-12-10T08:08:38.558Z,11.43
2018-12-10T08:11:06.910Z,7.10
2018-12-10T08:13:35.326Z,9.20
2018-12-10T08:16:04.064Z,6.53
2018-12-10T08:18:32.482Z,6.10
2018-12-10T08:21:02.410Z,6.53
2018-12-10T08:23:31.337Z,7.00
2018-12-10T08:26:00.089Z,6.27
2018-12-10T08:28:28.566Z,10.47
2018-12-10T08:30:57.028Z,6.20
2018-12-10T08:33:27.446Z,7.63
2018-12-10T08:35:55.847Z,8.50
2018-12-10T08:38:24.217Z,10.03
2018-12-10T08:40:53.741Z,7.97
2018-12-10T08:43:23.151Z,4.77
2018-12-10T08:45:53.637Z,6.87
2018-12-10T08:48:21.998Z,6.97
2018-12-10T08:50:51.442Z,8.13
2018-12-10T08:53:19.782Z,9.87
2018-12-10T08:55:48.195Z,6.43
2018-12-10T08:58:16.617Z,10.53
2018-12-10T09:00:45.073Z,7.37
2018-12-10T09:03:13.497Z,5.40
2018-12-10T09:05:43.955Z,7.73
2018-12-10T09:08:12.286Z,9.20
2018-12-10T09:10:41.652Z,8.23
2018-12-10T09:13:10.068Z,6.07
2018-12-10T09:15:38.668Z,6.07
2018-12-10T09:18:07.218Z,6.63
2018-12-10T09:20:35.641Z,5.93
2018-12-10T09:23:04.009Z,7.00
2018-12-10T09:25:33.421Z,4.87
2018-12-10T09:28:06.926Z,6.27
2018-12-10T09:30:37.478Z,6.23
2018-12-10T09:33:05.985Z,6.50
2018-12-10T09:35:36.829Z,6.13
2018-12-10T09:38:05.269Z,5.87
2018-12-10T09:40:33.658Z,4.30
2018-12-10T09:43:08.643Z,4.90
2018-12-10T09:45:38.038Z,5.73
2018-12-10T09:48:06.591Z,4.83
2018-12-10T09:50:38.871Z,6.47
2018-12-10T09:53:07.291Z,6.17
2018-12-10T09:55:40.702Z,5.87
2018-12-10T09:58:10.102Z,5.90
2018-12-10T10:00:38.481Z,4.30
2018-12-10T10:03:06.925Z,5.17
2018-12-10T10:05:36.400Z,4.50
2018-12-10T10:08:06.934Z,2.50
2018-12-10T10:10:36.346Z,1.50
2018-12-10T10:13:04.658Z,1.53
2018-12-10T10:15:33.097Z,1.47
2018-12-10T10:18:01.440Z,2.93
2018-12-10T10:20:30.998Z,2.30
2018-12-10T10:23:00.310Z,1.13
2018-12-10T10:25:29.672Z,2.70
2018-12-10T10:27:59.189Z,1.43
2018-12-10T10:30:27.565Z,3.03
2018-12-10T10:32:56.890Z,1.40
2018-12-10T10:35:25.334Z,2.70
2018-12-10T10:37:53.666Z,2.67
2018-12-10T10:40:22.233Z,3.67
2018-12-10T10:42:50.654Z,2.97
2018-12-10T10:45:19.201Z,2.20
2018-12-10T10:47:47.558Z,1.20
2018-12-10T10:50:16.940Z,1.30
2018-12-10T10:52:46.389Z,1.43
2018-12-10T10:55:15.720Z,1.13
2018-12-10T10:57:44.108Z,0.80
2018-12-10T11:00:18.356Z,1.10
2018-12-10T11:02:59.004Z,1.60
2018-12-10T11:05:27.421Z,2.20
2018-12-10T11:07:56.893Z,1.60
2018-12-10T11:10:26.333Z,4.57
2018-12-10T11:12:54.802Z,5.07
2018-12-10T11:15:25.192Z,4.77
2018-12-10T11:17:53.675Z,3.00
2018-12-10T11:20:23.088Z,4.53
2018-12-10T11:22:52.489Z,5.03
2018-12-10T11:25:20.857Z,5.07
2018-12-10T11:27:50.310Z,3.80
2018-12-10T11:30:18.766Z,3.70
2018-12-10T11:32:47.096Z,4.47
2018-12-10T11:35:15.617Z,2.63
2018-12-10T11:37:44.089Z,4.53
2018-12-10T11:40:12.482Z,5.30
2018-12-10T11:42:43.886Z,4.03
2018-12-10T11:45:12.287Z,3.40
2018-12-10T11:47:40.653Z,5.03
2018-12-10T11:50:09.283Z,3.77
2018-12-10T11:52:37.737Z,4.33
2018-12-10T11:55:07.296Z,4.00
2018-12-10T11:57:35.766Z,2.40
2018-12-10T12:00:04.393Z,5.40
2018-12-10T12:02:32.797Z,2.27
2018-12-10T12:05:01.305Z,4.90
2018-12-10T12:07:29.622Z,3.17
2018-12-10T12:09:58.058Z,3.57
2018-12-10T12:12:26.388Z,3.20
2018-12-10T12:14:54.948Z,4.57
2018-12-10T12:17:23.358Z,4.33
2018-12-10T12:19:52.781Z,2.33
2018-12-10T12:22:21.213Z,2.67
2018-12-10T12:24:49.726Z,2.07
2018-12-10T12:27:18.112Z,3.13
2018-12-10T12:29:46.486Z,4.03
2018-12-10T12:32:15.971Z,3.13
2018-12-10T12:34:44.458Z,3.97
2018-12-10T12:37:13.057Z,3.77
2018-12-10T12:39:41.465Z,4.60
2018-12-10T12:42:09.868Z,1.63
2018-12-10T12:44:38.199Z,4.30
2018-12-10T12:47:07.165Z,7.57
2018-12-10T12:49:36.577Z,5.10
2018-12-10T12:52:05.021Z,3.40
2018-12-10T12:54:34.392Z,1.93
2018-12-10T12:57:02.940Z,3.93
2018-12-10T12:59:31.364Z,2.73
2018-12-10T13:01:59.843Z,4.00
2018-12-10T13:04:32.934Z,3.73
2018-12-10T13:07:01.978Z,4.67
2018-12-10T13:09:30.488Z,3.43
2018-12-10T13:11:58.923Z,4.27
2018-12-10T13:14:27.391Z,2.97
2018-12-10T13:16:55.785Z,3.47
2018-12-10T13:19:24.298Z,3.83
2018-12-10T13:21:52.707Z,5.33
2018-12-10T13:24:21.116Z,5.70
2018-12-10T13:26:49.574Z,3.37
2018-12-10T13:29:18.253Z,5.43
2018-12-10T13:31:46.771Z,3.80
2018-12-10T13:34:15.310Z,4.57
2018-12-10T13:36:43.711Z,6.20
2018-12-10T13:39:12.994Z,5.03
2018-12-10T13:41:41.353Z,4.93
2018-12-10T13:44:09.772Z,3.27
2018-12-10T13:46:38.153Z,4.80
2018-12-10T13:49:06.530Z,3.60
2018-12-10T13:51:35.823Z,8.53
2018-12-10T13:54:04.311Z,3.13
2018-12-10T13:56:32.795Z,4.67
2018-12-10T13:59:01.205Z,5.57
2018-12-10T14:01:29.758Z,3.53
2018-12-10T14:03:58.572Z,4.87
2018-12-10T14:06:27.028Z,3.83
2018-12-10T14:08:55.463Z,3.87
2018-12-10T14:11:24.070Z,5.13
2018-12-10T14:13:52.490Z,3.77
2018-12-10T14:16:21.075Z,5.97
2018-12-10T14:18:49.580Z,4.17
2018-12-10T14:21:18.111Z,4.30
2018-12-10T14:23:46.628Z,9.60
2018-12-10T14:26:15.093Z,3.17
2018-12-10T14:28:43.465Z,3.57
2018-12-10T14:31:12.876Z,3.97
2018-12-10T14:33:41.283Z,4.37
2018-12-10T14:36:09.754Z,4.57
2018-12-10T14:38:39.422Z,4.70
2018-12-10T14:41:07.845Z,3.43
2018-12-10T14:43:36.306Z,2.47
2018-12-10T14:46:04.754Z,3.23
2018-12-10T14:48:33.131Z,4.70
2018-12-10T14:51:01.499Z,5.47
2018-12-10T14:53:29.953Z,6.10
2018-12-10T14:55:58.365Z,3.23
2018-12-10T14:58:26.798Z,3.50
2018-12-10T15:00:55.198Z,5.30
2018-12-10T15:03:23.581Z,6.10
2018-12-10T15:05:52.767Z,3.00
2018-12-10T15:08:21.124Z,2.90
2018-12-10T15:10:49.500Z,3.70
2018-12-10T15:13:17.837Z,5.43
2018-12-10T15:15:46.321Z,7.10
2018-12-10T15:18:14.707Z,4.90
2018-12-10T15:20:43.007Z,4.00
2018-12-10T15:23:11.406Z,3.73
2018-12-10T15:25:39.770Z,5.00
2018-12-10T15:28:08.226Z,4.17
2018-12-10T15:30:36.665Z,3.60
2018-12-10T15:33:05.122Z,2.87
2018-12-10T15:35:33.465Z,5.37
2018-12-10T15:38:01.859Z,3.80
2018-12-10T15:40:30.347Z,3.77
2018-12-10T15:42:58.757Z,4.23
2018-12-10T15:45:27.228Z,5.00
2018-12-10T15:47:55.604Z,5.07
2018-12-10T15:50:24.142Z,4.13
2018-12-10T15:52:52.610Z,3.73
2018-12-10T15:55:21.099Z,2.47
2018-12-10T15:57:49.547Z,5.70
2018-12-10T16:00:18.000Z,5.93
2018-12-10T16:02:46.371Z,3.30
2018-12-10T16:05:14.732Z,9.53
2018-12-10T16:07:43.155Z,5.10
2018-12-10T16:10:11.610Z,6.53
2018-12-10T16:12:40.078Z,4.00
2018-12-10T16:15:08.651Z,6.50
2018-12-10T16:17:37.100Z,3.63
2018-12-10T16:20:07.263Z,4.63
2018-12-10T16:22:35.677Z,4.90
2018-12-10T16:25:04.458Z,5.77
2018-12-10T16:27:33.207Z,6.60
2018-12-10T16:30:01.726Z,4.77
2018-12-10T16:32:30.090Z,6.63
2018-12-10T16:34:58.546Z,5.53
2018-12-10T16:37:27.892Z,20.97
2018-12-10T16:39:56.256Z,9.53
2018-12-10T16:42:24.634Z,8.40
2018-12-10T16:44:53.006Z,5.17
2018-12-10T16:47:21.399Z,7.20
2018-12-10T16:49:49.769Z,9.40
2018-12-10T16:52:18.128Z,6.17
2018-12-10T16:54:46.552Z,4.03
2018-12-10T16:57:15.333Z,4.80
2018-12-10T16:59:43.761Z,10.97
2018-12-10T17:02:12.182Z,7.03
2018-12-10T17:04:40.558Z,4.00
2018-12-10T17:07:09.029Z,6.87
2018-12-10T17:09:37.800Z,4.50
2018-12-10T17:12:06.571Z,3.00
2018-12-10T17:14:35.307Z,1.20
2018-12-10T17:17:04.068Z,1.27
2018-12-10T17:19:32.498Z,0.80
2018-12-10T17:22:01.182Z,1.53
2018-12-10T17:24:29.670Z,1.03
2018-12-10T17:26:58.173Z,0.80
2018-12-10T17:29:26.601Z,1.23
2018-12-10T17:31:54.973Z,1.20
2018-12-10T17:34:23.332Z,1.10
2018-12-10T17:36:51.900Z,2.33
2018-12-10T17:39:20.366Z,1.50
2018-12-10T17:41:48.818Z,1.20
2018-12-10T17:44:17.236Z,2.03
2018-12-10T17:46:45.661Z,3.20
2018-12-10T17:49:14.070Z,2.23
2018-12-10T17:51:42.482Z,5.50
2018-12-10T17:54:11.091Z,6.73
2018-12-10T17:56:39.974Z,7.80
2018-12-10T17:59:08.610Z,14.57
2018-12-10T18:01:37.090Z,9.83
2018-12-10T18:04:05.648Z,7.40
2018-12-10T18:06:34.053Z,3.40
2018-12-10T18:09:02.506Z,3.57
2018-12-10T18:11:30.870Z,2.30
2018-12-10T18:13:59.281Z,2.80
2018-12-10T18:16:27.650Z,1.73
2018-12-10T18:18:57.125Z,2.30
2018-12-10T18:21:25.650Z,2.57
2018-12-10T18:23:54.037Z,2.30
2018-12-10T18:26:22.714Z,2.20
2018-12-10T18:28:51.178Z,1.93
2018-12-10T18:31:19.561Z,2.73
2018-12-10T18:33:47.981Z,1.73
2018-12-10T18:36:16.457Z,2.43
2018-12-10T18:38:44.943Z,2.60
2018-12-10T18:41:13.560Z,2.50
2018-12-10T18:43:42.012Z,1.80
2018-12-10T18:46:10.451Z,2.10
2018-12-10T18:48:39.975Z,2.10
2018-12-10T18:51:08.405Z,3.47
2018-12-10T18:53:36.803Z,3.97
2018-12-10T18:56:05.272Z,5.37
2018-12-10T18:58:33.771Z,6.10
2018-12-10T19:01:02.235Z,7.50
2018-12-10T19:03:30.603Z,9.97
2018-12-10T19:05:59.143Z,13.60
2018-12-10T19:08:27.702Z,8.90
2018-12-10T19:10:56.170Z,18.07
2018-12-10T19:13:24.606Z,28.53
2018-12-10T19:15:53.322Z,17.67
2018-12-10T19:18:21.776Z,14.27
2018-12-10T19:20:50.226Z,10.00
2018-12-10T19:23:18.646Z,8.10
2018-12-10T19:25:47.095Z,8.10
2018-12-10T19:28:15.521Z,6.93
2018-12-10T19:30:44.007Z,6.13
2018-12-10T19:33:12.503Z,5.87
2018-12-10T19:35:40.920Z,5.47
2018-12-10T19:38:09.762Z,7.17
2018-12-10T19:40:38.221Z,6.67
2018-12-10T19:43:06.692Z,6.07
2018-12-10T19:45:35.460Z,7.30
2018-12-10T19:48:03.931Z,5.20
2018-12-10T19:50:32.363Z,7.10
2018-12-10T19:53:00.963Z,7.93
2018-12-10T19:55:29.615Z,9.43
2018-12-10T19:57:58.327Z,10.27
2018-12-10T20:00:27.953Z,8.53
2018-12-10T20:02:56.450Z,9.80
2018-12-10T20:05:29.148Z,8.40
2018-12-10T20:07:58.352Z,10.67
2018-12-10T20:10:28.777Z,11.20
2018-12-10T20:12:58.285Z,13.67
2018-12-10T20:15:26.779Z,6.97
2018-12-10T20:17:55.331Z,9.23
2018-12-10T20:20:24.536Z,6.07
2018-12-10T20:22:52.927Z,9.03
2018-12-10T20:25:21.327Z,8.63
2018-12-10T20:27:50.707Z,5.57
2018-12-10T20:30:20.242Z,5.20
2018-12-10T20:32:48.790Z,7.30
2018-12-10T20:35:17.250Z,6.73
2018-12-10T20:37:45.627Z,8.53
2018-12-10T20:40:15.145Z,5.17
2018-12-10T20:42:44.602Z,5.30
2018-12-10T20:45:16.845Z,6.57
2018-12-10T20:47:46.340Z,6.03
2018-12-10T20:50:14.910Z,7.23
2018-12-10T20:52:46.366Z,6.40
2018-12-10T20:55:14.907Z,5.37
2018-12-10T20:57:44.431Z,6.83
2018-12-10T21:00:13.913Z,5.27
2018-12-10T21:02:43.439Z,5.53
2018-12-10T21:05:11.964Z,7.00
2018-12-10T21:07:42.542Z,6.97
2018-12-10T21:10:15.082Z,4.07
2018-12-10T21:12:43.523Z,5.17
2018-12-10T21:15:14.110Z,5.93
2018-12-10T21:17:44.624Z,5.63
2018-12-10T21:20:13.101Z,4.57
2018-12-10T21:22:41.651Z,5.17
2018-12-10T21:25:11.060Z,6.20
2018-12-10T21:27:40.444Z,5.77
2018-12-10T21:30:13.038Z,4.30
2018-12-10T21:32:43.470Z,4.90
2018-12-10T21:35:16.723Z,8.57
2018-12-10T21:37:45.228Z,7.03
2018-12-10T21:40:14.828Z,7.40
2018-12-10T21:42:47.138Z,8.60
2018-12-10T21:45:15.779Z,8.43
2018-12-10T21:47:48.158Z,7.83
2018-12-10T21:50:16.960Z,7.63
2018-12-10T21:52:45.475Z,7.50
2018-12-10T21:55:16.882Z,10.73
2018-12-10T21:57:46.469Z,8.07
2018-12-10T22:00:14.913Z,5.80
2018-12-10T22:02:43.366Z,5.93
2018-12-10T22:05:11.881Z,8.17
2018-12-10T22:07:40.291Z,5.87
2018-12-10T22:10:08.738Z,5.63
2018-12-10T22:12:39.235Z,6.57
2018-12-10T22:15:07.711Z,9.40
2018-12-10T22:17:36.067Z,6.77
2018-12-10T22:20:04.975Z,4.37
2018-12-10T22:22:33.395Z,4.67
2018-12-10T22:25:02.655Z,6.43
2018-12-10T22:27:31.266Z,6.33
2018-12-10T22:29:59.661Z,6.70
2018-12-10T22:32:28.073Z,4.33
2018-12-10T22:34:56.426Z,3.67
2018-12-10T22:37:24.822Z,6.50
2018-12-10T22:39:53.196Z,7.47
2018-12-10T22:42:21.589Z,6.50
2018-12-10T22:44:49.925Z,4.70
2018-12-10T22:47:18.289Z,4.70
2018-12-10T22:49:46.591Z,7.80
2018-12-10T22:52:15.012Z,3.53
2018-12-10T22:54:43.428Z,5.80
2018-12-10T22:57:11.874Z,5.87
2018-12-10T22:59:40.217Z,3.47
2018-12-10T23:02:08.971Z,4.80
2018-12-10T23:04:37.402Z,7.07
2018-12-10T23:07:05.817Z,6.60
2018-12-10T23:09:34.322Z,7.77
2018-12-10T23:12:02.650Z,10.63
2018-12-10T23:14:32.076Z,8.70
2018-12-10T23:17:00.356Z,9.30
2018-12-10T23:19:28.730Z,8.57
2018-12-10T23:21:57.132Z,11.20
2018-12-10T23:24:25.468Z,5.87
2018-12-10T23:26:53.939Z,6.47
2018-12-10T23:29:22.344Z,5.83
2018-12-10T23:31:50.834Z,9.23
2018-12-10T23:34:19.176Z,7.60
2018-12-10T23:36:47.790Z,9.37
2018-12-10T23:39:16.241Z,9.10
2018-12-10T23:41:44.643Z,9.40
2018-12-10T23:44:17.318Z,7.30
2018-12-10T23:46:45.746Z,5.73
2018-12-10T23:49:14.130Z,8.93
2018-12-10T23:51:42.526Z,9.57
2018-12-10T23:54:10.931Z,10.07
2018-12-10T23:56:39.311Z,9.97
2018-12-10T23:59:07.732Z,8.67
